ADDS METAR Data INFO
IDs: Format: Raw Decoded Include TAF

Data at: 1746 UTC 15 Dec 2017

PAPH 151656Z AUTO 15019KT 10SM BKN090 06/02 A2887 RMK AO2 SLP780 T00560017
PAPH 151556Z AUTO 15020G27KT 10SM CLR 06/02 A2887 RMK AO2 PK WND 16027/1556 SLP778 T00560022
PAPH 151456Z AUTO 13015KT 10SM CLR 06/04 A2886 RMK AO2 PK WND 13034/1404 SLP776 60000 T00560039 56041
PAPH 151256Z AUTO 13025G31KT 10SM -RA FEW023 BKN033 OVC041 03/02 A2895 RMK AO2 PK WND 14039/1158 RAE04B25UPB04E09 SLP807 P0000 T00330017
PAPH 151234Z AUTO 13021G29KT 10SM -RA FEW017 OVC029 03/01 A2902 RMK AO2 PK WND 14039/1158 RAE04B25UPB04E09 P0000
PAPH 151156Z AUTO 14033G42KT 10SM -RA CLR 03/01 A2898 RMK AO2 PK WND 14042/1155 SLP818 P0000 60001 70001 T00280006 10033 20017 58096
PAPH 151141Z AUTO 13031G37KT 10SM -RA FEW018 03/01 A2899 RMK AO2 PK WND 13037/1140 PRESFR P0000
PAPH 151056Z AUTO 14021G26KT 10SM -RA BKN020 OVC025 02/01 A2913 RMK AO2 PK WND 13032/1012 SLP867 P0001 T00220006 FZRANO
PAPH 150956Z AUTO 13026G32KT 10SM -RA BKN018 OVC026 02/00 A2919 RMK AO2 PK WND 13032/0955 UPB33E43RAB43 PRESFR SLP886 P0000 T00220000 FZRANO
PAPH 150943Z AUTO 13019G27KT 10SM -RA SCT020 BKN026 BKN030 02/00 A2923 RMK AO2 PK WND 14031/0915 UPB33E43RAB43 P0000 FZRANO
PAPH 150856Z AUTO 13025G29KT 10SM FEW019 SCT110 03/00 A2927 RMK AO2 PK WND 14032/0827 SLP914 T00280000 56049
PAPH 150756Z AUTO 13023G38KT 10SM FEW024 BKN110 03/00 A2929 RMK AO2 PK WND 15039/0746 SLP922 T00330000 400391022
PAPH 150656Z AUTO 15029G38KT 10SM CLR 03/00 A2932 RMK AO2 PK WND 15040/0642 SLP931 T00330000
PAPH 150556Z AUTO 13013KT 10SM CLR 03/00 A2941 RMK AO2 SLP962 T00280000 10039 20017 56041
PAPH 150456Z AUTO 13013KT 10SM CLR 02/00 A2945 RMK AO2 SLP975 T00220000 FZRANO
PAPH 150356Z AUTO 13012KT 10SM CLR 02/00 A2949 RMK AO2 SLP989 T00220000 FZRANO
PAPH 150256Z AUTO 16010KT 10SM CLR 02/00 A2953 RMK AO2 SLP004 T00170000 55009 FZRANO
PAPH 150156Z AUTO 13010KT 10SM CLR 02/00 A2953 RMK AO2 SLP002 T00220000 FZRANO
PAPH 150056Z AUTO 15010KT 10SM CLR 03/00 A2955 RMK AO2 SLP010 T00330000
PAPH 142356Z AUTO 16007KT 10SM CLR 03/01 A2956 RMK AO2 SLP013 T00330006 10039 21022 57005
PAPH 142256Z AUTO 17007KT 10SM CLR 03/01 A2957 RMK AO2 SLP016 T00330006
PAPH 142156Z AUTO 10004KT 10SM CLR 03/00 A2956 RMK AO2 SLP014 T00280000
PAPH 142056Z AUTO 00000KT 10SM OVC049 01/00 A2957 RMK AO2 SLP018 T00110000 55000 FZRANO
PAPH 141956Z AUTO 07004KT 10SM CLR M01/M02 A2957 RMK AO2 SLP015 T10061017 FZRANO
PAPH 141856Z AUTO 07003KT 10SM FEW080 00/M01 A2957 RMK AO2 SLP017 T00001011 FZRANO
PAPH 141756Z AUTO 00000KT 10SM OVC048 00/M01 A2957 RMK AO2 SLP018 T00001011 10028 21011 52003 FZRANO
PAPH 141656Z AUTO 00000KT 10SM FEW065 M01/M02 A2957 RMK AO2 SLP018 T10061017 FZRANO
PAPH 141556Z AUTO 11003KT 10SM CLR 00/M02 A2956 RMK AO2 SLP015 T00001017 FZRANO
PAPH 141456Z AUTO 15005KT 10SM CLR 01/M01 A2956 RMK AO2 SLP015 T00111011 56004 FZRANO
PAPH 141356Z AUTO 15008KT 10SM FEW110 02/M01 A2957 RMK AO2 SLP015 T00171011 FZRANO
PAPH 141256Z AUTO 12005KT 10SM CLR 01/M02 A2957 RMK AO2 SLP016 T00111017 FZRANO
PAPH 141156Z AUTO 13007KT 10SM SCT110 03/M01 A2958 RMK AO2 SLP019 T00281006 10033 20011 58001
PAPH 141056Z AUTO 10004KT 10SM BKN100 02/M01 A2959 RMK AO2 SLP022 T00171006 FZRANO
PAPH 140956Z AUTO 14004KT 10SM CLR 01/M01 A2958 RMK AO2 SLP020 T00111006 FZRANO
PAPH 140856Z AUTO 13008KT 10SM CLR 01/00 A2958 RMK AO2 SLP020 T00110000 51004 FZRANO
PAPH 140756Z AUTO 15009KT 10SM SCT110 02/M01 A2958 RMK AO2 SLP019 T00171011 400441011 FZRANO
PAPH 140656Z AUTO 15010KT 10SM CLR 02/M01 A2957 RMK AO2 SLP018 T00171011 FZRANO
PAPH 140556Z AUTO 15010KT 10SM CLR 02/M01 A2957 RMK AO2 SLP016 60000 T00171006 10039 20000 50003 FZRANO